Attila, Illinois
Current Conditions -  °F | °C
As of 7:15 PM on Friday 28 Nov 2014 (Local Time) from KMWA Reporting Station
Clear Clear  
Wind Chill:   Ceiling: Unl
Heat Index:   Visibility: 10mi
Dew Point: -2°   Wind: 13mph
Humidity: 53%   Direction: 190°S
Pressure: 30.04"   Gusts: 21mph
Location:  37.7887°N, 88.8655°W
Report Text: KMWA 290115Z AUTO 19011G18KT 10SM CLR 07/M02 A3004 RMK AO2
Loading
Personal Weather Stations






























Interactive Weather Map New forecast layout! Learn more

10-Day Weather Forecast

Advertisements
Track Severe Weather on mobile